createdAt,value
2022-09-26T00:00:06.128Z,8.40
2022-09-26T00:02:33.033Z,8.50
2022-09-26T00:04:59.927Z,8.50
2022-09-26T00:07:26.789Z,8.50
2022-09-26T00:09:55.694Z,8.50
2022-09-26T00:12:22.617Z,8.40
2022-09-26T00:14:49.485Z,8.40
2022-09-26T00:17:16.361Z,8.40
2022-09-26T00:19:43.239Z,8.40
2022-09-26T00:22:10.117Z,8.40
2022-09-26T00:24:36.928Z,8.40
2022-09-26T00:27:03.872Z,8.40
2022-09-26T00:29:31.098Z,8.30
2022-09-26T00:31:57.970Z,8.30
2022-09-26T00:34:24.787Z,8.20
2022-09-26T00:36:52.819Z,8.20
2022-09-26T00:39:19.746Z,8.20
2022-09-26T00:41:46.651Z,8.10
2022-09-26T00:44:32.189Z,8.20
2022-09-26T00:46:59.038Z,8.10
2022-09-26T00:49:31.914Z,8.10
2022-09-26T00:52:01.234Z,8.10
2022-09-26T00:54:29.983Z,8.10
2022-09-26T00:57:00.294Z,8.10
2022-09-26T00:59:32.543Z,8.20
2022-09-26T01:01:59.651Z,8.20
2022-09-26T01:04:28.481Z,8.20
2022-09-26T01:06:56.461Z,8.20
2022-09-26T01:09:23.457Z,8.20
2022-09-26T01:11:50.307Z,8.20
2022-09-26T01:14:17.419Z,8.20
2022-09-26T01:16:46.186Z,8.20
2022-09-26T01:19:18.509Z,8.20
2022-09-26T01:21:56.544Z,8.20
2022-09-26T01:24:35.831Z,8.20
2022-09-26T01:27:14.253Z,8.10
2022-09-26T01:29:59.876Z,8.00
2022-09-26T01:32:50.186Z,7.90
2022-09-26T01:35:17.799Z,7.90
2022-09-26T01:38:03.289Z,7.80
2022-09-26T01:40:30.172Z,7.80
2022-09-26T01:43:06.387Z,7.90
2022-09-26T01:45:39.624Z,7.90
2022-09-26T01:48:10.160Z,7.90
2022-09-26T01:50:55.485Z,7.90
2022-09-26T01:53:24.467Z,7.90
2022-09-26T01:56:03.502Z,7.90
2022-09-26T01:58:30.331Z,7.90
2022-09-26T02:01:00.071Z,8.00
2022-09-26T02:03:29.408Z,8.10
2022-09-26T02:06:02.657Z,8.10
2022-09-26T02:08:32.976Z,8.10
2022-09-26T02:11:18.709Z,8.10
2022-09-26T02:13:52.177Z,8.10
2022-09-26T02:16:26.220Z,8.10
2022-09-26T02:18:57.041Z,8.10
2022-09-26T02:21:24.633Z,8.10
2022-09-26T02:23:52.485Z,8.10
2022-09-26T02:26:19.443Z,8.10
2022-09-26T02:28:46.454Z,8.00
2022-09-26T02:31:15.366Z,8.00
2022-09-26T02:33:42.250Z,8.00
2022-09-26T02:36:10.481Z,8.00
2022-09-26T02:38:37.917Z,8.00
2022-09-26T02:41:29.736Z,8.00
2022-09-26T02:44:15.226Z,8.00
2022-09-26T02:46:54.114Z,8.00
2022-09-26T02:49:26.762Z,8.00
2022-09-26T02:52:09.064Z,8.00
2022-09-26T02:54:43.866Z,8.00
2022-09-26T02:57:16.505Z,8.00
2022-09-26T03:00:03.250Z,8.00
2022-09-26T03:02:39.068Z,8.00
2022-09-26T03:05:11.476Z,8.10
2022-09-26T03:07:41.402Z,8.10
2022-09-26T03:10:09.670Z,8.10
2022-09-26T03:12:38.156Z,8.10
2022-09-26T03:15:06.126Z,8.20
2022-09-26T03:17:34.453Z,8.20
2022-09-26T03:20:11.371Z,8.20
2022-09-26T03:22:38.903Z,8.30
2022-09-26T03:25:06.434Z,8.30
2022-09-26T03:27:34.850Z,8.30
2022-09-26T03:30:01.748Z,8.30
2022-09-26T03:32:29.056Z,8.30
2022-09-26T03:34:56.314Z,8.40
2022-09-26T03:37:23.209Z,8.30
2022-09-26T03:39:50.063Z,8.40
2022-09-26T03:42:17.014Z,8.40
2022-09-26T03:44:44.162Z,8.40
2022-09-26T03:47:11.106Z,8.40
2022-09-26T03:49:39.035Z,8.40
2022-09-26T03:52:07.466Z,8.40
2022-09-26T03:54:34.529Z,8.30
2022-09-26T03:57:01.463Z,8.40
2022-09-26T03:59:28.336Z,8.40
2022-09-26T04:01:55.389Z,8.40
2022-09-26T04:04:22.268Z,8.40
2022-09-26T04:06:51.337Z,8.40
2022-09-26T04:09:18.790Z,8.50
2022-09-26T04:11:46.716Z,8.50
2022-09-26T04:14:13.582Z,8.50
2022-09-26T04:16:40.492Z,8.50
2022-09-26T04:19:07.384Z,8.60
2022-09-26T04:21:35.674Z,8.60
2022-09-26T04:24:02.998Z,8.60
2022-09-26T04:26:29.827Z,8.50
2022-09-26T04:28:57.283Z,8.50
2022-09-26T04:31:25.024Z,8.50
2022-09-26T04:33:52.226Z,8.40
2022-09-26T04:36:19.099Z,8.40
2022-09-26T04:38:45.937Z,8.40
2022-09-26T04:41:14.206Z,8.40
2022-09-26T04:43:41.405Z,8.40
2022-09-26T04:46:09.903Z,8.30
2022-09-26T04:48:37.104Z,8.30
2022-09-26T04:51:08.109Z,8.30
2022-09-26T04:53:35.464Z,8.30
2022-09-26T04:56:02.590Z,8.20
2022-09-26T04:58:29.612Z,8.20
2022-09-26T05:00:56.688Z,8.20
2022-09-26T05:03:23.639Z,8.20
2022-09-26T05:05:50.716Z,8.20
2022-09-26T05:08:17.814Z,8.20
2022-09-26T05:10:44.815Z,8.20
2022-09-26T05:13:11.686Z,8.20
2022-09-26T05:15:42.927Z,8.10
2022-09-26T05:18:11.507Z,8.10
2022-09-26T05:20:38.920Z,8.10
2022-09-26T05:23:07.464Z,8.10
2022-09-26T05:25:57.748Z,8.10
2022-09-26T05:28:25.001Z,8.10
2022-09-26T05:30:52.170Z,8.10
2022-09-26T05:33:19.723Z,8.00
2022-09-26T05:35:50.948Z,8.00
2022-09-26T05:38:17.818Z,8.00
2022-09-26T05:40:56.822Z,8.00
2022-09-26T05:43:24.374Z,8.00
2022-09-26T05:45:51.309Z,7.90
2022-09-26T05:48:18.191Z,7.90
2022-09-26T05:50:45.045Z,7.90
2022-09-26T05:53:12.234Z,7.90
2022-09-26T05:55:39.150Z,7.90
2022-09-26T05:58:06.473Z,7.90
2022-09-26T06:00:34.371Z,7.90
2022-09-26T06:03:03.815Z,8.00
2022-09-26T06:05:31.673Z,8.00
2022-09-26T06:07:59.125Z,8.00
2022-09-26T06:10:26.041Z,8.10
2022-09-26T06:12:52.848Z,8.10
2022-09-26T06:15:19.805Z,8.10
2022-09-26T06:17:48.321Z,8.10
2022-09-26T06:20:16.069Z,8.20
2022-09-26T06:22:43.649Z,8.20
2022-09-26T06:25:10.603Z,8.20
2022-09-26T06:27:38.768Z,8.20
2022-09-26T06:30:09.112Z,8.30
2022-09-26T06:32:36.368Z,8.30
2022-09-26T06:35:03.640Z,8.40
2022-09-26T06:37:30.537Z,8.40
2022-09-26T06:39:59.514Z,8.50
2022-09-26T06:42:26.591Z,8.50
2022-09-26T06:44:53.475Z,8.60
2022-09-26T06:47:20.448Z,8.60
2022-09-26T06:49:48.559Z,8.70
2022-09-26T06:52:15.407Z,8.70
2022-09-26T06:54:42.349Z,8.70
2022-09-26T06:57:14.752Z,8.70
2022-09-26T06:59:41.971Z,8.80
2022-09-26T07:02:09.333Z,8.90
2022-09-26T07:04:36.236Z,9.00
2022-09-26T07:07:03.326Z,9.20
2022-09-26T07:09:30.238Z,9.30
2022-09-26T07:12:14.188Z,9.40
2022-09-26T07:14:42.251Z,9.40
2022-09-26T07:17:13.854Z,9.50
2022-09-26T07:19:43.397Z,9.50
2022-09-26T07:22:10.949Z,9.60
2022-09-26T07:24:37.834Z,9.60
2022-09-26T07:27:04.766Z,9.70
2022-09-26T07:29:32.906Z,9.90
2022-09-26T07:32:00.178Z,10.00
2022-09-26T07:34:27.249Z,10.10
2022-09-26T07:36:54.312Z,10.20
2022-09-26T07:39:21.427Z,10.20
2022-09-26T07:41:49.210Z,10.30
2022-09-26T07:47:22.233Z,10.50
2022-09-26T07:50:07.691Z,10.50
2022-09-26T07:52:34.668Z,10.60
2022-09-26T07:55:01.593Z,10.60
2022-09-26T07:57:35.568Z,10.70
2022-09-26T08:00:05.159Z,10.80
2022-09-26T08:02:34.622Z,10.70
2022-09-26T08:05:03.593Z,10.80
2022-09-26T08:07:31.299Z,10.80
2022-09-26T08:09:59.191Z,10.80
2022-09-26T08:12:27.120Z,10.90
2022-09-26T08:14:54.101Z,10.90
2022-09-26T08:17:21.272Z,11.00
2022-09-26T08:19:50.507Z,11.00
2022-09-26T08:22:17.395Z,11.00
2022-09-26T08:24:49.819Z,11.00
2022-09-26T08:27:17.483Z,11.00
2022-09-26T08:29:48.650Z,11.00
2022-09-26T08:32:16.456Z,11.00
2022-09-26T08:34:43.658Z,11.10
2022-09-26T08:37:10.575Z,11.10
2022-09-26T08:39:37.670Z,11.10
2022-09-26T08:42:07.657Z,11.00
2022-09-26T08:44:45.747Z,11.10
2022-09-26T08:47:17.898Z,11.00
2022-09-26T08:50:01.784Z,10.90
2022-09-26T08:52:40.639Z,10.90
2022-09-26T08:55:12.398Z,10.80
2022-09-26T08:57:42.154Z,10.80
2022-09-26T09:00:15.326Z,10.80
2022-09-26T09:02:46.776Z,10.80
2022-09-26T09:05:22.237Z,10.90
2022-09-26T09:07:51.622Z,10.90
2022-09-26T09:10:22.655Z,10.90
2022-09-26T09:12:52.476Z,10.90
2022-09-26T09:15:42.711Z,10.90
2022-09-26T09:18:13.376Z,10.90
2022-09-26T09:20:52.815Z,10.80
2022-09-26T09:23:34.888Z,10.80
2022-09-26T09:29:10.332Z,10.60
2022-09-26T09:31:40.405Z,10.60
2022-09-26T09:34:10.607Z,10.60
2022-09-26T09:36:47.218Z,10.60
2022-09-26T09:39:18.042Z,10.60
2022-09-26T09:41:50.148Z,10.60
2022-09-26T09:44:32.140Z,10.60
2022-09-26T09:46:59.228Z,10.60
2022-09-26T09:49:26.671Z,10.50
2022-09-26T09:51:53.456Z,10.50
2022-09-26T09:54:26.133Z,10.40
2022-09-26T09:57:10.314Z,10.40
2022-09-26T09:59:46.421Z,10.30
2022-09-26T10:02:19.511Z,10.30
2022-09-26T10:04:50.862Z,10.30
2022-09-26T10:07:17.737Z,10.20
2022-09-26T10:09:44.554Z,10.30
2022-09-26T10:12:16.851Z,10.30
2022-09-26T10:14:50.644Z,10.30
2022-09-26T10:17:20.791Z,10.20
2022-09-26T10:19:48.060Z,10.10
2022-09-26T10:22:26.392Z,10.10
2022-09-26T10:24:59.436Z,10.00
2022-09-26T10:27:35.584Z,10.10
2022-09-26T10:30:04.854Z,10.10
2022-09-26T10:32:42.305Z,10.00
2022-09-26T10:35:24.305Z,10.00
2022-09-26T10:38:00.637Z,10.00
2022-09-26T10:40:47.312Z,10.00
2022-09-26T10:43:23.389Z,9.90
2022-09-26T10:45:54.976Z,9.90
2022-09-26T10:48:47.209Z,9.80
2022-09-26T10:51:16.198Z,9.80
2022-09-26T10:53:43.245Z,9.90
2022-09-26T10:56:20.185Z,9.90
2022-09-26T10:58:47.251Z,9.90
2022-09-26T11:01:32.732Z,10.00
2022-09-26T11:04:11.659Z,10.10
2022-09-26T11:06:45.355Z,10.20
2022-09-26T11:09:18.479Z,10.20
2022-09-26T11:11:47.281Z,10.10
2022-09-26T11:14:27.294Z,10.20
2022-09-26T11:16:55.581Z,10.20
2022-09-26T11:19:33.253Z,10.20
2022-09-26T11:22:15.779Z,10.20
2022-09-26T11:24:54.964Z,10.20
2022-09-26T11:27:24.778Z,10.20
2022-09-26T11:29:53.127Z,10.20
2022-09-26T11:32:26.337Z,10.30
2022-09-26T11:34:54.462Z,10.50
2022-09-26T11:37:31.086Z,10.50
2022-09-26T11:40:13.614Z,10.50
2022-09-26T11:42:55.001Z,10.60
2022-09-26T11:45:47.479Z,10.60
2022-09-26T11:48:14.936Z,10.70
2022-09-26T11:50:45.124Z,10.70
2022-09-26T11:53:39.990Z,10.80
2022-09-26T11:56:16.026Z,10.80
2022-09-26T11:58:43.674Z,10.90
2022-09-26T12:01:30.740Z,10.90
2022-09-26T12:04:27.372Z,11.00
2022-09-26T12:06:56.748Z,11.10
2022-09-26T12:09:26.361Z,11.20
2022-09-26T12:12:03.950Z,11.30
2022-09-26T12:14:49.239Z,11.40
2022-09-26T12:17:17.735Z,11.40
2022-09-26T12:20:06.923Z,11.70
2022-09-26T12:22:52.245Z,11.80
2022-09-26T12:25:26.821Z,11.70
2022-09-26T12:27:53.734Z,11.80
2022-09-26T12:30:25.283Z,11.80
2022-09-26T12:33:04.490Z,11.90
2022-09-26T12:35:39.276Z,12.00
2022-09-26T12:38:17.766Z,12.10
2022-09-26T12:40:48.680Z,12.10
2022-09-26T12:43:15.566Z,12.30
2022-09-26T12:45:56.110Z,12.30
2022-09-26T12:48:22.931Z,12.30
2022-09-26T12:50:49.819Z,12.20
2022-09-26T12:53:28.728Z,12.20
2022-09-26T12:55:55.579Z,12.20
2022-09-26T12:58:41.259Z,12.10
2022-09-26T13:01:16.689Z,12.10
2022-09-26T13:03:55.625Z,12.10
2022-09-26T13:06:36.972Z,12.10
2022-09-26T13:09:18.329Z,12.20
2022-09-26T13:11:52.276Z,12.20
2022-09-26T13:14:23.498Z,12.10
2022-09-26T13:16:50.383Z,12.00
2022-09-26T13:19:17.249Z,12.00
2022-09-26T13:21:49.035Z,11.90
2022-09-26T13:24:21.374Z,11.90
2022-09-26T13:26:54.324Z,11.90
2022-09-26T13:29:24.315Z,11.80
2022-09-26T13:31:56.223Z,11.70
2022-09-26T13:34:29.253Z,11.60
2022-09-26T13:36:59.129Z,11.50
2022-09-26T13:39:27.002Z,11.40
2022-09-26T13:41:56.632Z,11.30
2022-09-26T13:44:25.267Z,11.20
2022-09-26T13:46:55.040Z,11.00
2022-09-26T13:49:25.205Z,11.00
2022-09-26T13:52:06.073Z,10.90
2022-09-26T13:54:56.402Z,10.90
2022-09-26T13:57:36.720Z,10.90
2022-09-26T14:00:25.952Z,10.90
2022-09-26T14:03:15.604Z,10.90
2022-09-26T14:05:42.609Z,10.70
2022-09-26T14:08:43.476Z,10.70
2022-09-26T14:11:27.897Z,10.70
2022-09-26T14:14:16.483Z,10.60
2022-09-26T14:16:44.155Z,10.50
2022-09-26T14:19:11.176Z,10.50
2022-09-26T14:22:02.637Z,10.50
2022-09-26T14:24:42.527Z,10.40
2022-09-26T14:27:09.386Z,10.40
2022-09-26T14:29:57.071Z,10.40
2022-09-26T14:32:28.647Z,10.40
2022-09-26T14:34:59.434Z,10.50
2022-09-26T14:37:42.507Z,10.50
2022-09-26T14:40:09.320Z,10.50
2022-09-26T14:42:47.019Z,10.60
2022-09-26T14:45:16.872Z,10.60
2022-09-26T14:47:45.584Z,10.50
2022-09-26T14:50:20.545Z,10.50
2022-09-26T14:52:51.838Z,10.50
2022-09-26T14:55:19.414Z,10.40
2022-09-26T14:57:46.744Z,10.40
2022-09-26T15:00:36.864Z,10.40
2022-09-26T15:03:13.347Z,10.30
2022-09-26T15:05:44.012Z,10.20
2022-09-26T15:08:25.451Z,10.20
2022-09-26T15:10:53.328Z,10.20
2022-09-26T15:13:20.276Z,10.20
2022-09-26T15:15:49.041Z,10.10
2022-09-26T15:18:28.207Z,10.20
2022-09-26T15:20:59.331Z,10.10
2022-09-26T15:23:32.698Z,10.10
2022-09-26T15:26:02.761Z,10.10
2022-09-26T15:28:34.653Z,10.10
2022-09-26T15:31:21.188Z,10.10
2022-09-26T15:33:52.107Z,10.10
2022-09-26T15:36:19.070Z,10.10
2022-09-26T15:38:47.417Z,10.00
2022-09-26T15:41:15.783Z,10.00
2022-09-26T15:43:42.904Z,10.00
2022-09-26T15:46:21.640Z,10.00
2022-09-26T15:48:48.558Z,10.00
2022-09-26T15:51:23.718Z,10.00
2022-09-26T15:53:53.755Z,10.00
2022-09-26T15:56:33.793Z,10.00
2022-09-26T15:59:02.335Z,10.00
2022-09-26T16:01:30.504Z,10.00
2022-09-26T16:04:00.614Z,10.00
2022-09-26T16:06:27.516Z,10.00
2022-09-26T16:08:58.109Z,10.00
2022-09-26T16:11:25.884Z,10.00
2022-09-26T16:13:53.775Z,10.00
2022-09-26T16:16:24.639Z,9.90
2022-09-26T16:18:56.745Z,9.90
2022-09-26T16:21:36.624Z,9.90
2022-09-26T16:24:28.929Z,9.90
2022-09-26T16:26:56.232Z,9.90
2022-09-26T16:29:37.089Z,9.90
2022-09-26T16:32:04.559Z,9.80
2022-09-26T16:34:31.796Z,9.80
2022-09-26T16:36:58.897Z,9.80
2022-09-26T16:39:27.390Z,9.80
2022-09-26T16:42:03.960Z,9.80
2022-09-26T16:44:35.816Z,9.80
2022-09-26T16:47:05.878Z,9.80
2022-09-26T16:49:48.647Z,9.80
2022-09-26T16:52:29.279Z,9.80
2022-09-26T16:55:00.141Z,9.70
2022-09-26T16:57:31.356Z,9.70
2022-09-26T17:00:20.134Z,9.70
2022-09-26T17:02:47.160Z,9.70
2022-09-26T17:05:18.707Z,9.70
2022-09-26T17:07:46.542Z,9.60
2022-09-26T17:10:13.946Z,9.60
2022-09-26T17:12:40.992Z,9.60
2022-09-26T17:15:09.005Z,9.60
2022-09-26T17:17:36.555Z,9.60
2022-09-26T17:20:03.693Z,9.60
2022-09-26T17:22:31.297Z,9.50
2022-09-26T17:24:58.269Z,9.50
2022-09-26T17:27:27.381Z,9.60
2022-09-26T17:29:56.067Z,9.50
2022-09-26T17:32:37.634Z,9.50
2022-09-26T17:35:10.781Z,9.50
2022-09-26T17:37:37.607Z,9.50
2022-09-26T17:40:17.481Z,9.50
2022-09-26T17:42:44.610Z,9.40
2022-09-26T17:45:11.580Z,9.40
2022-09-26T17:47:38.455Z,9.40
2022-09-26T17:50:05.822Z,9.40
2022-09-26T17:52:33.529Z,9.40
2022-09-26T17:55:02.389Z,9.40
2022-09-26T17:57:34.650Z,9.40
2022-09-26T18:00:06.892Z,9.40
2022-09-26T18:02:36.777Z,9.30
2022-09-26T18:05:06.537Z,9.30
2022-09-26T18:07:35.511Z,9.30
2022-09-26T18:10:05.523Z,9.30
2022-09-26T18:12:32.558Z,9.20
2022-09-26T18:15:00.770Z,9.30
2022-09-26T18:17:27.643Z,9.30
2022-09-26T18:19:54.596Z,9.20
2022-09-26T18:22:26.464Z,9.20
2022-09-26T18:24:56.778Z,9.20
2022-09-26T18:27:23.633Z,9.20
2022-09-26T18:29:50.661Z,9.20
2022-09-26T18:32:20.334Z,9.20
2022-09-26T18:34:47.199Z,9.20
2022-09-26T18:37:18.429Z,9.20
2022-09-26T18:39:45.366Z,9.20
2022-09-26T18:42:15.498Z,9.20
2022-09-26T18:44:43.231Z,9.20
2022-09-26T18:47:14.063Z,9.20
2022-09-26T18:49:41.304Z,9.20
2022-09-26T18:52:15.832Z,9.20
2022-09-26T18:54:44.791Z,9.20
2022-09-26T18:57:33.408Z,9.20
2022-09-26T19:00:00.410Z,9.20
2022-09-26T19:02:31.459Z,9.20
2022-09-26T19:04:59.935Z,9.10
2022-09-26T19:07:26.805Z,9.20
2022-09-26T19:09:55.284Z,9.20
2022-09-26T19:12:22.151Z,9.20
2022-09-26T19:14:49.276Z,9.20
2022-09-26T19:17:16.127Z,9.20
2022-09-26T19:19:43.083Z,9.20
2022-09-26T19:22:14.740Z,9.20
2022-09-26T19:24:44.686Z,9.20
2022-09-26T19:27:11.551Z,9.20
2022-09-26T19:29:46.441Z,9.20
2022-09-26T19:32:21.229Z,9.20
2022-09-26T19:34:51.050Z,9.20
2022-09-26T19:37:17.965Z,9.20
2022-09-26T19:39:44.905Z,9.20
2022-09-26T19:42:12.949Z,9.20
2022-09-26T19:44:39.985Z,9.20
2022-09-26T19:47:09.783Z,9.20
2022-09-26T19:49:36.610Z,9.20
2022-09-26T19:52:05.621Z,9.20
2022-09-26T19:54:33.304Z,9.20
2022-09-26T19:57:01.378Z,9.20
2022-09-26T19:59:28.251Z,9.20
2022-09-26T20:01:55.201Z,9.20
2022-09-26T20:04:22.448Z,9.20
2022-09-26T20:06:49.351Z,9.20
2022-09-26T20:09:17.942Z,9.20
2022-09-26T20:11:44.940Z,9.20
2022-09-26T20:14:23.916Z,9.20
2022-09-26T20:16:51.735Z,9.30
2022-09-26T20:19:48.647Z,9.30
2022-09-26T20:22:17.577Z,9.30
2022-09-26T20:24:47.597Z,9.30
2022-09-26T20:27:20.757Z,9.30
2022-09-26T20:30:14.455Z,9.30
2022-09-26T20:32:41.706Z,9.30
2022-09-26T20:35:12.817Z,9.40
2022-09-26T20:37:40.615Z,9.40
2022-09-26T20:40:13.603Z,9.40
2022-09-26T20:42:41.490Z,9.30
2022-09-26T20:45:15.171Z,9.40
2022-09-26T20:47:42.957Z,9.40
2022-09-26T20:50:13.731Z,9.40
2022-09-26T20:52:42.677Z,9.40
2022-09-26T20:55:14.680Z,9.40
2022-09-26T20:57:42.160Z,9.40
2022-09-26T21:00:19.715Z,9.40
2022-09-26T21:02:54.485Z,9.50
2022-09-26T21:05:24.571Z,9.40
2022-09-26T21:07:52.028Z,9.40
2022-09-26T21:10:25.716Z,9.40
2022-09-26T21:12:52.823Z,9.50
2022-09-26T21:15:20.173Z,9.50
2022-09-26T21:17:49.940Z,9.50
2022-09-26T21:20:18.253Z,9.50
2022-09-26T21:22:45.159Z,9.50
2022-09-26T21:25:16.695Z,9.50
2022-09-26T21:27:44.614Z,9.50
2022-09-26T21:30:15.692Z,9.50
2022-09-26T21:32:47.297Z,9.50
2022-09-26T21:35:15.996Z,9.50
2022-09-26T21:37:43.548Z,9.40
2022-09-26T21:40:10.659Z,9.50
2022-09-26T21:42:37.750Z,9.50
2022-09-26T21:45:07.752Z,9.50
2022-09-26T21:47:36.959Z,9.40
2022-09-26T21:50:05.790Z,9.40
2022-09-26T21:52:37.712Z,9.40
2022-09-26T21:55:06.353Z,9.40
2022-09-26T21:57:34.766Z,9.40
2022-09-26T22:00:03.979Z,9.40
2022-09-26T22:02:30.968Z,9.40
2022-09-26T22:04:57.895Z,9.40
2022-09-26T22:07:24.754Z,9.40
2022-09-26T22:09:51.655Z,9.40
2022-09-26T22:12:19.326Z,9.40
2022-09-26T22:14:46.192Z,9.40
2022-09-26T22:17:13.068Z,9.40
2022-09-26T22:19:40.002Z,9.40
2022-09-26T22:22:06.909Z,9.40
2022-09-26T22:24:33.957Z,9.40
2022-09-26T22:27:00.785Z,9.40
2022-09-26T22:29:27.706Z,9.40
2022-09-26T22:31:54.534Z,9.40
2022-09-26T22:34:23.051Z,9.40
2022-09-26T22:36:50.091Z,9.40
2022-09-26T22:39:17.037Z,9.40
2022-09-26T22:41:44.343Z,9.40
2022-09-26T22:44:11.156Z,9.40
2022-09-26T22:46:38.521Z,9.40
2022-09-26T22:49:06.100Z,9.40
2022-09-26T22:51:32.921Z,9.40
2022-09-26T22:53:59.850Z,9.40
2022-09-26T22:56:26.685Z,9.40
2022-09-26T22:58:53.738Z,9.30
2022-09-26T23:01:24.796Z,9.30
2022-09-26T23:03:54.647Z,9.20
2022-09-26T23:06:23.891Z,9.20
2022-09-26T23:08:51.101Z,9.20
2022-09-26T23:11:18.671Z,9.20
2022-09-26T23:13:46.323Z,9.20
2022-09-26T23:16:14.129Z,9.20
2022-09-26T23:18:41.658Z,9.20
2022-09-26T23:21:09.601Z,9.10
2022-09-26T23:23:37.024Z,9.00
2022-09-26T23:26:04.561Z,9.00
2022-09-26T23:28:33.505Z,9.00
2022-09-26T23:31:07.193Z,8.90
2022-09-26T23:33:34.391Z,8.90
2022-09-26T23:36:01.410Z,8.90
2022-09-26T23:38:28.370Z,8.90
2022-09-26T23:40:55.445Z,8.90
2022-09-26T23:43:22.413Z,8.90
2022-09-26T23:45:49.643Z,8.90
2022-09-26T23:48:16.598Z,8.90
2022-09-26T23:50:44.237Z,9.00
2022-09-26T23:53:11.460Z,9.00
2022-09-26T23:55:38.374Z,9.00
2022-09-26T23:58:05.391Z,9.00
